createdAt,value
2024-01-27T00:01:59.199Z,6.30
2024-01-27T00:07:01.048Z,5.60
2024-01-27T00:12:02.914Z,4.60
2024-01-27T00:17:04.584Z,4.55
2024-01-27T00:22:06.620Z,3.30
2024-01-27T00:27:08.344Z,6.13
2024-01-27T00:32:10.027Z,4.13
2024-01-27T00:37:11.640Z,5.22
2024-01-27T00:42:13.557Z,3.88
2024-01-27T00:47:15.255Z,4.47
2024-01-27T00:52:16.843Z,4.70
2024-01-27T00:57:18.504Z,4.15
2024-01-27T01:02:20.224Z,5.95
2024-01-27T01:07:21.851Z,3.25
2024-01-27T01:12:23.662Z,5.47
2024-01-27T01:17:25.390Z,4.05
2024-01-27T01:22:27.000Z,5.13
2024-01-27T01:27:28.751Z,6.65
2024-01-27T01:32:30.383Z,3.60
2024-01-27T01:37:32.357Z,3.45
2024-01-27T01:42:34.069Z,4.00
2024-01-27T01:47:35.824Z,2.58
2024-01-27T01:52:38.458Z,4.85
2024-01-27T01:57:40.150Z,5.55
2024-01-27T02:02:44.678Z,6.45
2024-01-27T02:07:46.267Z,3.65
2024-01-27T02:12:47.946Z,4.07
2024-01-27T02:17:49.676Z,6.22
2024-01-27T02:22:51.329Z,7.13
2024-01-27T02:27:53.319Z,6.15
2024-01-27T02:32:58.577Z,7.70
2024-01-27T02:38:00.241Z,6.82
2024-01-27T02:43:02.160Z,4.30
2024-01-27T02:48:04.430Z,6.55
2024-01-27T02:53:06.149Z,6.25
2024-01-27T02:58:07.814Z,7.72
2024-01-27T03:03:09.556Z,6.55
2024-01-27T03:08:11.415Z,4.30
2024-01-27T03:13:13.062Z,6.53
2024-01-27T03:18:14.824Z,5.35
2024-01-27T03:23:16.473Z,5.27
2024-01-27T03:28:18.092Z,6.72
2024-01-27T03:33:19.855Z,6.18
2024-01-27T03:38:21.533Z,6.07
2024-01-27T03:43:23.146Z,9.60
2024-01-27T03:48:25.327Z,4.72
2024-01-27T03:53:26.981Z,4.10
2024-01-27T03:58:28.590Z,9.90
2024-01-27T04:03:30.257Z,7.00
2024-01-27T04:08:31.975Z,8.85
2024-01-27T04:13:33.589Z,11.27
2024-01-27T04:18:35.344Z,8.27
2024-01-27T04:23:37.131Z,6.15
2024-01-27T04:28:38.795Z,4.53
2024-01-27T04:33:40.712Z,7.95
2024-01-27T04:38:44.670Z,6.47
2024-01-27T04:43:46.275Z,9.38
2024-01-27T04:48:48.388Z,6.28
2024-01-27T04:53:51.673Z,8.55
2024-01-27T04:58:53.438Z,7.47
2024-01-27T05:03:55.205Z,8.15
2024-01-27T05:08:57.079Z,6.00
2024-01-27T05:13:59.969Z,9.90
2024-01-27T05:19:01.713Z,8.53
2024-01-27T05:24:03.556Z,6.05
2024-01-27T05:29:05.286Z,9.53
2024-01-27T05:34:07.067Z,7.65
2024-01-27T05:39:09.492Z,8.60
2024-01-27T05:44:11.117Z,7.78
2024-01-27T05:49:12.930Z,11.70
2024-01-27T05:54:17.743Z,6.90
2024-01-27T05:59:19.663Z,9.35
2024-01-27T06:04:21.302Z,9.75
2024-01-27T06:09:23.110Z,7.15
2024-01-27T06:14:24.921Z,10.30
2024-01-27T06:19:26.724Z,8.10
2024-01-27T06:24:28.481Z,5.72
2024-01-27T06:29:30.270Z,9.73
2024-01-27T06:34:33.414Z,11.65
2024-01-27T06:39:35.230Z,8.57
2024-01-27T06:44:36.869Z,8.90
2024-01-27T06:49:38.759Z,8.65
2024-01-27T06:54:44.999Z,4.88
2024-01-27T06:59:53.451Z,7.93
2024-01-27T07:04:55.843Z,10.02
2024-01-27T07:09:58.251Z,7.00
2024-01-27T07:15:01.021Z,8.17
2024-01-27T07:20:03.003Z,8.40
2024-01-27T07:25:05.134Z,6.35
2024-01-27T07:30:09.738Z,9.03
2024-01-27T07:35:11.570Z,8.00
2024-01-27T07:40:13.536Z,8.27
2024-01-27T07:45:16.079Z,8.93
2024-01-27T07:50:17.896Z,5.35
2024-01-27T07:55:19.472Z,7.43
2024-01-27T08:00:21.344Z,8.25
2024-01-27T08:05:23.025Z,4.78
2024-01-27T08:10:24.818Z,9.45
2024-01-27T08:15:26.508Z,13.23
2024-01-27T08:20:28.137Z,6.93
2024-01-27T08:25:29.812Z,9.35
2024-01-27T08:30:31.533Z,10.73
2024-01-27T08:35:33.302Z,9.32
2024-01-27T08:40:35.292Z,8.90
2024-01-27T08:45:38.948Z,6.60
2024-01-27T08:50:40.680Z,5.70
2024-01-27T08:55:42.550Z,9.70
2024-01-27T09:00:44.278Z,7.82
2024-01-27T09:05:46.376Z,7.13
2024-01-27T09:10:48.047Z,8.90
2024-01-27T09:15:49.840Z,9.52
2024-01-27T09:20:51.586Z,8.10
2024-01-27T09:25:53.260Z,19.35
2024-01-27T09:30:55.119Z,9.23
2024-01-27T09:35:56.872Z,7.60
2024-01-27T09:40:58.540Z,7.32
2024-01-27T09:46:00.593Z,8.20
2024-01-27T09:51:03.682Z,10.45
2024-01-27T09:56:05.672Z,11.38
2024-01-27T10:01:08.210Z,8.20
2024-01-27T10:06:10.964Z,10.07
2024-01-27T10:11:15.174Z,8.57
2024-01-27T10:16:16.838Z,7.97
2024-01-27T10:21:19.677Z,9.65
2024-01-27T10:26:21.355Z,10.13
2024-01-27T10:31:29.981Z,12.48
2024-01-27T10:36:42.264Z,12.70
2024-01-27T10:41:47.422Z,9.73
2024-01-27T10:46:50.315Z,8.52
2024-01-27T10:51:59.729Z,11.25
2024-01-27T10:57:03.112Z,9.90
2024-01-27T11:02:05.716Z,12.32
2024-01-27T11:07:08.326Z,10.43
2024-01-27T11:12:10.381Z,10.65
2024-01-27T11:17:12.174Z,12.35
2024-01-27T11:22:30.065Z,9.77
2024-01-27T11:27:31.789Z,11.13
2024-01-27T11:32:34.017Z,8.10
2024-01-27T11:37:36.413Z,9.20
2024-01-27T11:42:38.127Z,10.75
2024-01-27T11:47:39.852Z,12.23
2024-01-27T11:52:41.556Z,6.75
2024-01-27T11:57:43.479Z,16.70
2024-01-27T12:02:45.192Z,10.48
2024-01-27T12:07:46.939Z,13.90
2024-01-27T12:12:48.587Z,7.07
2024-01-27T12:17:52.705Z,8.77
2024-01-27T12:23:07.385Z,12.77
2024-01-27T12:28:09.907Z,9.70
2024-01-27T12:33:13.427Z,9.30
2024-01-27T12:38:15.156Z,11.48
2024-01-27T12:43:16.851Z,10.25
2024-01-27T12:48:18.523Z,11.82
2024-01-27T12:53:20.286Z,9.75
2024-01-27T12:58:21.940Z,10.45
2024-01-27T13:03:23.681Z,8.45
2024-01-27T13:08:26.088Z,7.88
2024-01-27T13:13:27.888Z,8.23
2024-01-27T13:18:29.711Z,7.68
2024-01-27T13:23:31.533Z,8.70
2024-01-27T13:28:33.360Z,9.35
2024-01-27T13:33:36.588Z,8.20
2024-01-27T13:38:38.850Z,9.65
2024-01-27T13:43:40.769Z,10.20
2024-01-27T13:48:43.259Z,7.43
2024-01-27T13:53:47.652Z,11.57
2024-01-27T13:58:50.040Z,9.48
2024-01-27T14:03:52.133Z,10.38
2024-01-27T14:08:53.925Z,10.60
2024-01-27T14:13:56.837Z,7.32
2024-01-27T14:18:58.665Z,8.57
2024-01-27T14:24:07.497Z,5.88
2024-01-27T14:29:09.157Z,9.25
2024-01-27T14:34:11.168Z,5.32
2024-01-27T14:39:13.204Z,7.53
2024-01-27T14:44:15.037Z,6.72
2024-01-27T14:49:17.292Z,7.07
2024-01-27T14:54:21.199Z,6.82
2024-01-27T14:59:23.129Z,6.25
2024-01-27T15:04:27.861Z,6.57
2024-01-27T15:09:29.596Z,7.75
2024-01-27T15:14:32.956Z,8.18
2024-01-27T15:19:40.578Z,7.30
2024-01-27T15:24:43.185Z,7.00
2024-01-27T15:29:44.940Z,15.45
2024-01-27T15:34:46.693Z,8.32
2024-01-27T15:39:48.548Z,10.88
2024-01-27T15:44:50.203Z,11.35
2024-01-27T15:49:57.978Z,9.15
2024-01-27T15:55:00.198Z,8.25
2024-01-27T16:00:01.977Z,7.20
2024-01-27T16:05:06.682Z,9.05
2024-01-27T16:10:08.635Z,8.77
2024-01-27T16:15:10.858Z,9.85
2024-01-27T16:20:12.764Z,9.50
2024-01-27T16:25:15.120Z,10.35
2024-01-27T16:30:17.384Z,13.18
2024-01-27T16:35:20.217Z,8.30
2024-01-27T16:40:22.513Z,9.90
2024-01-27T16:45:24.223Z,6.25
2024-01-27T16:50:25.895Z,9.73
2024-01-27T16:55:27.621Z,7.97
2024-01-27T17:00:29.336Z,8.30
2024-01-27T17:05:30.965Z,10.60
2024-01-27T17:10:32.766Z,8.07
2024-01-27T17:15:35.769Z,10.95
2024-01-27T17:20:37.521Z,7.57
2024-01-27T17:25:39.331Z,7.68
2024-01-27T17:30:41.474Z,10.00
2024-01-27T17:35:43.232Z,11.43
2024-01-27T17:40:44.941Z,9.35
2024-01-27T17:45:46.674Z,9.85
2024-01-27T17:50:48.351Z,11.65
2024-01-27T17:55:50.807Z,9.77
2024-01-27T18:00:52.799Z,9.00
2024-01-27T18:05:54.778Z,10.98
2024-01-27T18:10:56.409Z,10.98
2024-01-27T18:15:58.963Z,9.68
2024-01-27T18:21:00.721Z,10.85
2024-01-27T18:26:02.394Z,9.50
2024-01-27T18:31:04.364Z,10.77
2024-01-27T18:36:06.201Z,14.15
2024-01-27T18:41:07.879Z,7.85
2024-01-27T18:46:09.595Z,10.23
2024-01-27T18:51:11.241Z,10.10
2024-01-27T18:56:14.347Z,9.13
2024-01-27T19:01:15.995Z,8.60
2024-01-27T19:06:19.604Z,13.27
2024-01-27T19:11:22.162Z,12.65
2024-01-27T19:16:23.983Z,12.23
2024-01-27T19:21:25.641Z,8.13
2024-01-27T19:26:27.278Z,14.00
2024-01-27T19:31:28.999Z,21.23
2024-01-27T19:36:30.681Z,18.27
2024-01-27T19:41:32.488Z,18.08
2024-01-27T19:46:34.145Z,15.70
2024-01-27T19:51:41.762Z,16.40
2024-01-27T19:56:43.404Z,15.55
2024-01-27T20:01:45.126Z,13.93
2024-01-27T20:06:48.678Z,17.08
2024-01-27T20:11:50.658Z,13.43
2024-01-27T20:16:52.283Z,9.43
2024-01-27T20:21:53.918Z,10.13
2024-01-27T20:26:55.520Z,12.18
2024-01-27T20:31:57.210Z,11.48
2024-01-27T20:36:58.877Z,11.60
2024-01-27T20:42:00.687Z,15.75
2024-01-27T20:47:02.361Z,13.27
2024-01-27T20:52:04.868Z,19.30
2024-01-27T20:57:06.562Z,17.38
2024-01-27T21:02:08.236Z,16.05
2024-01-27T21:07:10.450Z,17.57
2024-01-27T21:12:12.138Z,14.27
2024-01-27T21:17:13.920Z,15.60
2024-01-27T21:22:15.611Z,12.83
2024-01-27T21:27:17.393Z,12.83
2024-01-27T21:32:20.990Z,12.90
2024-01-27T21:37:24.265Z,13.40
2024-01-27T21:42:25.894Z,10.10
2024-01-27T21:47:27.544Z,9.17
2024-01-27T21:52:29.344Z,10.23
2024-01-27T21:57:31.091Z,11.97
2024-01-27T22:02:38.988Z,11.53
2024-01-27T22:07:42.503Z,13.30
2024-01-27T22:12:45.952Z,8.93
2024-01-27T22:17:47.632Z,18.93
2024-01-27T22:22:49.269Z,18.17
2024-01-27T22:27:50.961Z,12.63
2024-01-27T22:32:53.387Z,14.57
2024-01-27T22:37:56.583Z,14.33
2024-01-27T22:42:58.570Z,13.67
2024-01-27T22:48:03.419Z,9.57
2024-01-27T22:53:05.198Z,11.63
2024-01-27T22:58:06.857Z,13.60
2024-01-27T23:03:10.189Z,13.70
2024-01-27T23:08:13.494Z,12.73
2024-01-27T23:13:22.230Z,13.40
2024-01-27T23:18:24.012Z,14.27
2024-01-27T23:23:26.239Z,13.20
2024-01-27T23:28:27.908Z,14.53
2024-01-27T23:33:29.735Z,12.90
2024-01-27T23:38:31.401Z,15.20
2024-01-27T23:43:33.131Z,11.83
2024-01-27T23:48:35.203Z,14.60
2024-01-27T23:53:39.101Z,14.80
2024-01-27T23:58:40.740Z,10.90
